Terminal Aerodrome Forecast
Issued by NWS

Home | Current Version | Previous Version | Text Only | Print | Product List | Glossary On
Versions: 1 2 3 4 5 6 7 8 9 10 11 12 13 14 15 16 17 18 19 20 21 22
000
FTUS46 KSEW 292328
TAFOLM
TAF
KOLM 292328Z 3000/3024 24014G19KT P6SM VCSH BKN016 OVC060
     FM300300 22008KT P6SM VCSH OVC019
     FM302100 29010KT P6SM VCSH BKN045=

USA.gov is the U.S. government's official web portal to all federal, state and local government web resources and services.